Time;durP1;ratioP1;P1;durP2;ratioP2;P2;SDS_P1;SDS_P2;PMS_P1;PMS_P2;Temp;Humidity;BMP_temperature;BMP_pressure;BME280_temperature;BME280_humidity;BME280_pressure;Samples;Min_cycle;Max_cycle;Signal;HPM_P1;HPM_P2
2023/12/27 00:00:15;;;;;;;29.50;3.35;;;;;;;-144.73;100.00;54719.69;5003830;28;20022;-81
2023/12/27 00:02:49;;;;;;;33.72;5.32;;;;;;;-144.73;100.00;54670.44;5007028;28;20022;-81
2023/12/27 00:05:18;;;;;;;29.98;4.43;;;;;;;-144.73;100.00;54695.06;5016981;28;20026;-81
2023/12/27 00:07:43;;;;;;;49.40;5.30;;;;;;;-144.73;100.00;54697.13;5018132;28;20414;-80
2023/12/27 00:10:12;;;;;;;31.08;4.63;;;;;;;-144.73;100.00;54744.31;5017228;28;20022;-81
2023/12/27 00:12:38;;;;;;;28.52;4.65;;;;;;;-144.73;100.00;54682.75;5007478;28;20075;-80
2023/12/27 00:15:20;;;;;;;40.80;4.18;;;;;;;-144.73;100.00;54690.97;4983139;28;20024;-80
2023/12/27 00:17:49;;;;;;;39.33;3.78;;;;;;;-144.73;100.00;54699.16;4995330;28;20100;-81
2023/12/27 00:20:28;;;;;;;27.02;4.07;;;;;;;-144.73;100.00;54682.75;5004555;28;20026;-81
2023/12/27 00:22:56;;;;;;;33.65;4.82;;;;;;;-144.73;100.00;54658.13;5009711;28;20034;-80
2023/12/27 00:25:22;;;;;;;45.88;5.28;;;;;;;-144.73;100.00;54654.00;5018613;28;20029;-80
2023/12/27 00:27:48;;;;;;;24.65;3.65;;;;;;;-144.73;100.00;54719.69;5004060;28;20105;-80
2023/12/27 00:30:18;;;;;;;23.58;4.20;;;;;;;-144.73;100.00;54705.31;5006814;28;20092;-80
2023/12/27 00:32:55;;;;;;;26.70;5.25;;;;;;;-144.73;100.00;54678.63;4990843;28;20043;-81
2023/12/27 00:35:27;;;;;;;32.58;4.70;;;;;;;-144.73;100.00;54690.97;4994804;28;20038;-79
2023/12/27 00:37:55;;;;;;;44.30;4.13;;;;;;;-144.73;100.00;54688.91;5005730;28;20050;-78
2023/12/27 00:40:21;;;;;;;33.92;3.78;;;;;;;-144.73;100.00;54703.28;4998705;28;20042;-80
2023/12/27 00:42:47;;;;;;;53.22;5.88;;;;;;;-144.73;100.00;54719.69;4992380;28;20184;-82
2023/12/27 00:45:13;;;;;;;34.40;4.43;;;;;;;-144.73;100.00;54719.69;4981540;28;20046;-81
2023/12/27 00:47:56;;;;;;;32.30;4.28;;;;;;;-144.73;100.00;54654.00;4993670;28;20500;-81
2023/12/27 00:50:25;;;;;;;32.38;4.30;;;;;;;-144.73;100.00;54690.97;5007440;28;20041;-77
2023/12/27 00:52:50;;;;;;;22.38;4.07;;;;;;;-144.73;100.00;54723.81;5000183;28;20042;-81
2023/12/27 00:55:16;;;;;;;37.25;4.35;;;;;;;-144.73;100.00;54686.84;5002362;28;20035;-83
2023/12/27 00:57:55;;;;;;;26.08;3.60;;;;;;;-144.73;100.00;54709.44;5008557;28;20109;-79
2023/12/27 01:00:26;;;;;;;33.27;3.83;;;;;;;-144.73;100.00;54686.84;5014244;28;20475;-82
2023/12/27 01:02:51;;;;;;;31.95;3.72;;;;;;;-144.73;100.00;54688.91;5004877;28;20041;-81
2023/12/27 01:05:17;;;;;;;38.55;4.10;;;;;;;-144.73;100.00;54711.47;5024582;28;20034;-81
2023/12/27 01:07:46;;;;;;;27.67;4.03;;;;;;;-144.73;100.00;54688.91;5020173;28;20058;-80
2023/12/27 01:10:17;;;;;;;30.58;3.35;;;;;;;-144.73;100.00;54719.69;5032404;28;20031;-83
2023/12/27 01:13:00;;;;;;;27.50;3.83;;;;;;;-144.73;100.00;54703.28;5027860;28;20029;-80
2023/12/27 01:15:29;;;;;;;30.90;4.28;;;;;;;-144.73;100.00;54686.84;5008879;28;20037;-81
2023/12/27 01:17:57;;;;;;;37.17;5.10;;;;;;;-144.73;100.00;54711.47;5001025;28;20034;-81
2023/12/27 01:20:23;;;;;;;29.27;4.22;;;;;;;-144.73;100.00;54715.59;5025476;28;20029;-81
2023/12/27 01:22:52;;;;;;;31.48;4.32;;;;;;;-144.73;100.00;54688.91;5015645;28;20103;-81
2023/12/27 01:25:23;;;;;;;26.38;4.10;;;;;;;-144.73;100.00;54682.75;5034782;28;20029;-81
2023/12/27 01:27:51;;;;;;;35.17;3.92;;;;;;;-144.73;100.00;54690.97;5027428;28;20033;-81
2023/12/27 01:30:17;;;;;;;32.60;4.53;;;;;;;-144.73;100.00;54686.84;5025163;28;20029;-80
2023/12/27 01:32:42;;;;;;;21.75;3.38;;;;;;;-144.73;100.00;54727.91;5008611;28;20088;-81
2023/12/27 01:35:11;;;;;;;34.25;4.05;;;;;;;-144.73;100.00;54703.28;5007622;28;20022;-81
2023/12/27 01:37:47;;;;;;;23.13;3.78;;;;;;;-144.73;100.00;54703.28;4988001;28;20026;-81
2023/12/27 01:40:18;;;;;;;25.13;4.72;;;;;;;-144.73;100.00;54637.59;5013556;28;20022;-81
2023/12/27 01:42:58;;;;;;;40.50;4.15;;;;;;;-144.73;100.00;54686.84;5015537;28;20046;-82
2023/12/27 01:45:24;;;;;;;38.15;4.65;;;;;;;-144.73;100.00;54707.38;5007406;28;20110;-82
2023/12/27 01:47:56;;;;;;;28.05;3.72;;;;;;;-144.73;100.00;54713.53;5014717;28;20034;-80
2023/12/27 01:50:24;;;;;;;35.65;4.93;;;;;;;-144.73;100.00;54678.63;5008612;28;20199;-81
2023/12/27 01:53:04;;;;;;;26.80;5.15;;;;;;;-144.73;100.00;54676.59;5008239;28;20058;-83
2023/12/27 01:55:30;;;;;;;40.72;4.20;;;;;;;-144.73;100.00;54711.47;4989064;28;20028;-83
2023/12/27 01:58:00;;;;;;;24.92;4.03;;;;;;;-144.73;100.00;54688.91;5013536;28;20033;-80
2023/12/27 02:00:26;;;;;;;35.58;4.20;;;;;;;-144.73;100.00;54721.75;5007027;28;20030;-80
2023/12/27 02:02:57;;;;;;;21.92;3.60;;;;;;;-144.73;100.00;54719.69;4993457;28;20033;-81
2023/12/27 02:05:25;;;;;;;24.05;3.53;;;;;;;-144.73;100.00;54711.47;5006420;28;20037;-81
2023/12/27 02:07:51;;;;;;;42.28;3.70;;;;;;;-144.73;100.00;54688.91;4988482;28;20030;-80
2023/12/27 02:10:17;;;;;;;28.92;3.65;;;;;;;-144.73;100.00;54703.28;4994985;28;20026;-81
2023/12/27 02:12:54;;;;;;;39.50;4.40;;;;;;;-144.73;100.00;54674.53;5008302;28;20028;-80
2023/12/27 02:15:20;;;;;;;31.85;4.10;;;;;;;-144.73;100.00;54695.06;5014236;28;20045;-80
2023/12/27 02:17:50;;;;;;;25.83;3.70;;;;;;;-144.73;100.00;54656.06;4999750;28;20048;-82
2023/12/27 02:20:18;;;;;;;38.05;4.25;;;;;;;-144.73;100.00;54715.59;5011680;28;20026;-82
2023/12/27 02:22:52;;;;;;;38.58;3.88;;;;;;;-144.73;100.00;54707.38;5000789;28;20089;-80
2023/12/27 02:25:18;;;;;;;36.15;5.07;;;;;;;-144.73;100.00;54686.84;5000322;28;20022;-80
2023/12/27 02:27:47;;;;;;;36.40;4.90;;;;;;;-144.73;100.00;54686.84;5001608;28;20034;-80
2023/12/27 02:30:22;;;;;;;22.13;3.53;;;;;;;-144.73;100.00;54678.63;5014715;28;20022;-81
2023/12/27 02:32:53;;;;;;;31.80;3.95;;;;;;;-144.73;100.00;54690.97;5002593;28;20030;-81
2023/12/27 02:35:21;;;;;;;44.25;4.65;;;;;;;-144.73;100.00;54707.38;5001078;28;20022;-80
2023/12/27 02:37:52;;;;;;;29.73;4.05;;;;;;;-144.73;100.00;54723.81;4996380;28;20058;-81
2023/12/27 02:40:18;;;;;;;36.45;4.57;;;;;;;-144.73;100.00;54670.44;5000266;28;20030;-80
2023/12/27 02:42:47;;;;;;;29.83;4.05;;;;;;;-144.73;100.00;54695.06;4991873;28;20026;-81
2023/12/27 02:45:19;;;;;;;29.65;3.80;;;;;;;-144.73;100.00;54688.91;5001987;28;20181;-81
2023/12/27 02:47:54;;;;;;;21.83;3.88;;;;;;;-144.73;100.00;54756.66;5002200;28;20050;-80
2023/12/27 02:50:26;;;;;;;26.73;4.30;;;;;;;-144.73;100.00;54678.63;5012603;28;20025;-81
2023/12/27 02:52:56;;;;;;;30.83;4.47;;;;;;;-144.73;100.00;54690.97;4993865;28;20117;-80
2023/12/27 02:55:24;;;;;;;24.58;3.58;;;;;;;-144.73;100.00;54711.47;4983759;28;20033;-81
2023/12/27 02:57:50;;;;;;;24.30;3.85;;;;;;;-144.73;100.00;54690.97;4997827;28;20106;-81
2023/12/27 03:00:15;;;;;;;29.20;4.13;;;;;;;-144.73;100.00;54703.28;5006586;28;20048;-81
2023/12/27 03:02:44;;;;;;;36.30;4.57;;;;;;;-144.73;100.00;54649.91;4995996;28;20037;-81
2023/12/27 03:05:17;;;;;;;22.92;3.45;;;;;;;-144.73;100.00;54699.16;4995885;28;20026;-80
2023/12/27 03:07:42;;;;;;;28.50;3.60;;;;;;;-144.73;100.00;54707.38;5000062;28;20030;-80
2023/12/27 03:10:11;;;;;;;29.90;3.65;;;;;;;-144.73;100.00;54707.38;4998891;28;20023;-80
2023/12/27 03:12:46;;;;;;;22.30;2.88;;;;;;;-144.73;100.00;54705.31;5000696;28;20035;-81
2023/12/27 03:15:23;;;;;;;39.13;4.45;;;;;;;-144.73;100.00;54701.22;4984447;28;20026;-79
2023/12/27 03:18:07;;;;;;;31.17;3.65;;;;;;;-144.73;100.00;54703.28;5002023;28;20045;-81
2023/12/27 03:20:32;;;;;;;24.80;3.92;;;;;;;-144.73;100.00;54715.59;4987661;28;20018;-80
2023/12/27 03:23:00;;;;;;;40.70;3.78;;;;;;;-144.73;100.00;54695.06;5007779;28;20156;-80
2023/12/27 03:25:29;;;;;;;34.53;3.42;;;;;;;-144.73;100.00;54703.28;5003187;28;20030;-81
2023/12/27 03:27:54;;;;;;;43.05;4.50;;;;;;;-144.73;100.00;54711.47;5003203;28;20026;-79
2023/12/27 03:30:20;;;;;;;36.40;4.82;;;;;;;-144.73;100.00;54711.47;4996437;28;20053;-82
2023/12/27 03:32:46;;;;;;;31.27;3.72;;;;;;;-144.73;100.00;54715.59;5008295;28;20034;-81
2023/12/27 03:35:11;;;;;;;30.92;3.92;;;;;;;-144.73;100.00;54670.44;5023078;28;20112;-81
2023/12/27 03:37:46;;;;;;;37.90;3.50;;;;;;;-144.73;100.00;54678.63;5007023;28;20037;-80
2023/12/27 03:40:11;;;;;;;43.13;5.05;;;;;;;-144.73;100.00;54711.47;4998023;28;20036;-81
2023/12/27 03:42:40;;;;;;;44.33;4.07;;;;;;;-144.73;100.00;54723.81;5007706;28;20029;-80
2023/12/27 03:45:18;;;;;;;28.30;3.63;;;;;;;-144.73;100.00;54682.75;5018400;28;20479;-81
2023/12/27 03:47:51;;;;;;;33.15;4.00;;;;;;;-144.73;100.00;54695.06;5023217;28;20025;-80
2023/12/27 03:50:16;;;;;;;24.20;3.42;;;;;;;-144.73;100.00;54699.16;5020505;28;20026;-80
2023/12/27 03:52:43;;;;;;;31.80;3.65;;;;;;;-144.73;100.00;54740.22;5030292;28;20041;-80
2023/12/27 03:55:09;;;;;;;35.08;4.43;;;;;;;-144.73;100.00;54690.97;5024092;28;20104;-80
2023/12/27 03:57:34;;;;;;;29.05;4.10;;;;;;;-144.73;100.00;54678.63;5002751;28;20061;-81
2023/12/27 04:00:00;;;;;;;42.90;3.50;;;;;;;-144.73;100.00;54703.28;5028662;28;20021;-80
2023/12/27 04:02:26;;;;;;;22.67;3.72;;;;;;;-144.73;100.00;54699.16;5027440;28;20044;-80
2023/12/27 04:04:51;;;;;;;36.75;4.40;;;;;;;-144.73;100.00;54719.69;5003751;28;20033;-81
2023/12/27 04:07:20;;;;;;;35.95;3.78;;;;;;;-144.73;100.00;54711.47;5010929;28;20096;-80
2023/12/27 04:09:53;;;;;;;23.90;4.03;;;;;;;-144.73;100.00;54670.44;5008296;28;20583;-80
2023/12/27 04:12:26;;;;;;;33.75;5.45;;;;;;;-144.73;100.00;54645.78;4996766;28;20039;-83
2023/12/27 04:14:52;;;;;;;30.33;4.10;;;;;;;-144.73;100.00;54715.59;4994572;28;20022;-81
2023/12/27 04:17:21;;;;;;;33.00;4.28;;;;;;;-144.73;100.00;54680.69;5010137;28;20086;-80
2023/12/27 04:19:47;;;;;;;27.17;4.00;;;;;;;-144.73;100.00;54703.28;5005101;28;20033;-80
2023/12/27 04:22:15;;;;;;;35.70;4.60;;;;;;;-144.73;100.00;54746.38;5024395;28;20037;-80
2023/12/27 04:24:40;;;;;;;34.45;4.88;;;;;;;-144.73;100.00;54688.91;5014659;28;20018;-80
2023/12/27 04:27:09;;;;;;;28.30;3.42;;;;;;;-144.73;100.00;54682.75;4999698;28;20092;-80
2023/12/27 04:29:37;;;;;;;34.30;4.93;;;;;;;-144.73;100.00;54670.44;5006882;28;20104;-82
2023/12/27 04:32:03;;;;;;;26.45;3.22;;;;;;;-144.73;100.00;54682.75;5016445;28;20399;-81
2023/12/27 04:34:38;;;;;;;43.03;4.55;;;;;;;-144.73;100.00;54686.84;5023267;28;20033;-81
2023/12/27 04:37:07;;;;;;;19.83;3.83;;;;;;;-144.73;100.00;54695.06;5018033;28;20030;-80
2023/12/27 04:39:35;;;;;;;23.60;3.55;;;;;;;-144.73;100.00;54732.00;4998907;28;20018;-80
2023/12/27 04:42:03;;;;;;;21.98;3.53;;;;;;;-144.73;100.00;54697.13;4990138;28;20037;-81
2023/12/27 04:44:29;;;;;;;20.88;3.55;;;;;;;-144.73;100.00;54670.44;4997022;28;20018;-81
2023/12/27 04:46:57;;;;;;;33.60;5.53;;;;;;;-144.73;100.00;54715.59;5001318;28;20036;-81
2023/12/27 04:49:25;;;;;;;41.55;4.13;;;;;;;-144.73;100.00;54719.69;5007944;28;20033;-82
2023/12/27 04:51:53;;;;;;;24.27;4.25;;;;;;;-144.73;100.00;54705.31;5008591;28;20045;-81
2023/12/27 04:54:26;;;;;;;47.78;4.65;;;;;;;-144.73;100.00;54690.97;5006383;28;20032;-81
2023/12/27 04:56:57;;;;;;;28.42;3.78;;;;;;;-144.73;100.00;54760.75;5004028;28;20030;-81
2023/12/27 04:59:22;;;;;;;38.42;4.03;;;;;;;-144.73;100.00;54695.06;5012608;28;20080;-81
2023/12/27 05:01:53;;;;;;;31.92;4.10;;;;;;;-144.73;100.00;54674.53;4990081;28;20034;-80
2023/12/27 05:04:18;;;;;;;35.47;4.00;;;;;;;-144.73;100.00;54705.31;4999482;28;20496;-80
2023/12/27 05:06:47;;;;;;;29.83;4.05;;;;;;;-144.73;100.00;54690.97;4984784;28;20129;-82
2023/12/27 05:09:16;;;;;;;26.60;4.28;;;;;;;-144.73;100.00;54715.59;5010616;28;20494;-81
2023/12/27 05:11:42;;;;;;;39.03;4.55;;;;;;;-144.73;100.00;54713.53;4995483;28;20039;-81
2023/12/27 05:14:08;;;;;;;38.03;4.07;;;;;;;-144.73;100.00;54686.84;5005672;28;20463;-81
2023/12/27 05:16:33;;;;;;;44.40;4.72;;;;;;;-144.73;100.00;54686.84;5009511;28;20057;-81
2023/12/27 05:18:59;;;;;;;39.65;4.25;;;;;;;-144.73;100.00;54705.31;5012197;28;20029;-80
2023/12/27 05:21:27;;;;;;;42.40;5.28;;;;;;;-144.73;100.00;54719.69;5005791;28;20069;-81
2023/12/27 05:23:55;;;;;;;40.15;4.00;;;;;;;-144.73;100.00;54707.38;4993643;28;20017;-81
2023/12/27 05:26:20;;;;;;;31.20;3.72;;;;;;;-144.73;100.00;54670.44;4998239;28;20022;-81
2023/12/27 05:28:46;;;;;;;19.25;3.90;;;;;;;-144.73;100.00;54727.91;5002489;28;20180;-80
2023/12/27 05:31:17;;;;;;;19.13;3.30;;;;;;;-144.73;100.00;54682.75;5005053;28;20070;-81
2023/12/27 05:33:48;;;;;;;29.45;4.13;;;;;;;-144.73;100.00;54732.00;5025378;28;20387;-80
2023/12/27 05:36:14;;;;;;;34.20;4.45;;;;;;;-144.73;100.00;54732.00;5015776;28;20025;-82
2023/12/27 05:38:46;;;;;;;32.25;4.72;;;;;;;-144.73;100.00;54719.69;5007312;28;20029;-82
2023/12/27 05:41:12;;;;;;;38.65;4.75;;;;;;;-144.73;100.00;54690.97;4988147;28;20116;-80
2023/12/27 05:43:40;;;;;;;19.85;3.83;;;;;;;-144.73;100.00;54711.47;5001637;28;20045;-81
2023/12/27 05:46:06;;;;;;;24.63;4.07;;;;;;;-144.73;100.00;54678.63;5002641;28;20014;-81
2023/12/27 05:48:32;;;;;;;32.92;4.05;;;;;;;-144.73;100.00;54703.28;5000971;28;20380;-81
2023/12/27 05:50:59;;;;;;;38.20;4.60;;;;;;;-144.73;100.00;54703.28;5007447;28;20024;-81
2023/12/27 05:53:25;;;;;;;19.08;3.72;;;;;;;-144.73;100.00;54711.47;5000819;28;20045;-81
2023/12/27 05:55:51;;;;;;;31.85;4.10;;;;;;;-144.73;100.00;54686.84;5004771;28;20018;-80
2023/12/27 05:58:16;;;;;;;21.92;5.20;;;;;;;-144.73;100.00;54711.47;4995153;28;20037;-81
2023/12/27 06:00:42;;;;;;;23.33;3.83;;;;;;;-144.73;100.00;54686.84;5011795;28;20053;-81
2023/12/27 06:03:13;;;;;;;43.42;4.63;;;;;;;-144.73;100.00;54707.38;5004934;28;20112;-80
2023/12/27 06:05:38;;;;;;;29.70;3.85;;;;;;;-144.73;100.00;54658.13;4995236;28;20027;-81
2023/12/27 06:08:05;;;;;;;40.20;3.97;;;;;;;-144.73;100.00;54678.63;4999348;28;20503;-81
2023/12/27 06:10:36;;;;;;;22.25;3.40;;;;;;;-144.73;100.00;54686.84;4997101;28;20029;-81
2023/12/27 06:13:34;;;;;;;28.25;3.72;;;;;;;-144.73;100.00;54637.59;5014087;28;20084;-81
2023/12/27 06:16:00;;;;;;;27.35;3.90;;;;;;;-144.73;100.00;54754.59;5010817;28;20076;-81
2023/12/27 06:18:25;;;;;;;40.40;5.05;;;;;;;-144.73;100.00;54715.59;4995076;28;20038;-82
2023/12/27 06:20:57;;;;;;;31.95;4.45;;;;;;;-144.73;100.00;54711.47;5005565;28;20033;-81
2023/12/27 06:23:31;;;;;;;33.78;3.90;;;;;;;-144.73;100.00;54715.59;5000957;28;20060;-82
2023/12/27 06:25:59;;;;;;;34.70;3.67;;;;;;;-144.73;100.00;54658.13;5000645;28;20026;-80
2023/12/27 06:28:25;;;;;;;25.70;3.78;;;;;;;-144.73;100.00;54727.91;5005603;28;20040;-80
2023/12/27 06:33:39;;;;;;;36.72;4.93;;;;;;;-144.73;100.00;54703.28;5027631;28;20037;-81
2023/12/27 06:36:09;;;;;;;24.00;4.30;;;;;;;-144.73;100.00;54703.28;5016447;28;20040;-81
2023/12/27 06:38:45;;;;;;;22.67;3.45;;;;;;;-144.73;100.00;54680.69;5022946;28;20041;-81
2023/12/27 06:41:11;;;;;;;23.70;4.00;;;;;;;-144.73;100.00;54744.31;5021418;28;20013;-81
2023/12/27 06:43:43;;;;;;;24.88;3.35;;;;;;;-144.73;100.00;54654.00;5007685;28;20044;-80
2023/12/27 06:46:11;;;;;;;;;;;;;;;-144.73;100.00;54715.59;5016100;28;20109;-80
2023/12/27 06:48:40;;;;;;;24.85;5.22;;;;;;;-144.73;100.00;54703.28;5027866;28;19932;-81
2023/12/27 06:51:06;;;;;;;38.20;4.60;;;;;;;-144.73;100.00;54723.81;5018209;28;20024;-80
2023/12/27 06:53:43;;;;;;;21.25;3.72;;;;;;;-144.73;100.00;54690.97;5021479;28;20041;-80
2023/12/27 06:56:26;;;;;;;27.42;3.90;;;;;;;-144.73;100.00;54686.84;5027772;28;20029;-81
2023/12/27 06:58:55;;;;;;;32.00;3.42;;;;;;;-144.73;100.00;54709.44;5013681;28;20545;-81
2023/12/27 07:01:25;;;;;;;18.45;3.63;;;;;;;-144.73;100.00;54699.16;5007890;28;20033;-80
2023/12/27 07:03:59;;;;;;;24.60;2.80;;;;;;;-144.73;100.00;54690.97;5000816;28;20018;-81
2023/12/27 07:06:40;;;;;;;34.35;3.88;;;;;;;-144.73;100.00;54699.16;4999701;28;20026;-80
2023/12/27 07:09:15;;;;;;;25.85;3.83;;;;;;;-144.73;100.00;54732.00;5013138;28;20025;-80
2023/12/27 07:11:40;;;;;;;35.25;4.47;;;;;;;-144.73;100.00;54697.13;5007193;28;20121;-80
2023/12/27 07:14:06;;;;;;;38.58;4.22;;;;;;;-144.73;100.00;54707.38;5014595;28;20053;-81
2023/12/27 07:16:31;;;;;;;25.13;3.75;;;;;;;-144.73;100.00;54695.06;4989896;28;20030;-82
2023/12/27 07:19:01;;;;;;;30.52;4.28;;;;;;;-144.73;100.00;54723.81;5000861;28;20026;-80
2023/12/27 07:21:31;;;;;;;;;;;;;;;-144.73;100.00;54703.28;5012709;28;20064;-80
2023/12/27 07:24:00;;;;;;;27.85;3.70;;;;;;;-144.73;100.00;54732.00;5013017;28;19915;-81
2023/12/27 07:26:26;;;;;;;29.65;5.07;;;;;;;-144.73;100.00;54682.75;5021151;28;20026;-81
2023/12/27 07:28:55;;;;;;;31.42;4.55;;;;;;;-144.73;100.00;54662.22;5024036;28;20040;-81
2023/12/27 07:31:23;;;;;;;31.90;4.32;;;;;;;-144.73;100.00;54725.84;5027550;28;20029;-81
2023/12/27 07:33:49;;;;;;;32.83;4.93;;;;;;;-144.73;100.00;54709.44;5016117;28;20025;-81
2023/12/27 07:36:21;;;;;;;27.40;4.07;;;;;;;-144.73;100.00;54740.22;5010208;28;20022;-81
2023/12/27 07:38:50;;;;;;;29.02;4.45;;;;;;;-144.73;100.00;54697.13;5023875;28;20025;-80
2023/12/27 07:41:16;;;;;;;31.63;3.60;;;;;;;-144.73;100.00;54707.38;5021687;28;20030;-81
2023/12/27 07:43:48;;;;;;;31.08;4.60;;;;;;;-144.73;100.00;54695.06;5022492;28;20095;-81
2023/12/27 07:46:13;;;;;;;26.15;3.80;;;;;;;-144.73;100.00;54682.75;5021070;28;20079;-81
2023/12/27 07:48:41;;;;;;;31.63;4.38;;;;;;;-144.73;100.00;54715.59;5023907;28;20018;-81
2023/12/27 07:51:08;;;;;;;30.80;4.97;;;;;;;-144.73;100.00;54686.84;5023286;28;20021;-81
2023/12/27 07:53:38;;;;;;;30.05;4.75;;;;;;;-144.73;100.00;54703.28;5019139;28;20033;-80
2023/12/27 07:56:09;;;;;;;19.88;3.35;;;;;;;-144.73;100.00;54715.59;5027832;28;20025;-80
2023/12/27 07:58:35;;;;;;;32.47;4.93;;;;;;;-144.73;100.00;54654.00;5039140;28;20072;-80
2023/12/27 08:01:03;;;;;;;24.63;4.45;;;;;;;-144.73;100.00;54707.38;5026512;28;20268;-81
2023/12/27 08:03:34;;;;;;;28.83;5.50;;;;;;;-144.73;100.00;54695.06;5037637;28;20033;-81
2023/12/27 08:06:03;;;;;;;26.92;4.32;;;;;;;-144.73;100.00;54645.78;5017175;28;20034;-81
2023/12/27 08:08:29;;;;;;;24.70;4.22;;;;;;;-144.73;100.00;54703.28;5015365;28;20041;-80
2023/12/27 08:10:58;;;;;;;21.42;4.47;;;;;;;-144.73;100.00;54699.16;5027177;28;20017;-80
2023/12/27 08:13:30;;;;;;;25.00;4.30;;;;;;;-144.73;100.00;54674.53;5026806;28;20026;-80
2023/12/27 08:16:02;;;;;;;24.48;3.53;;;;;;;-144.73;100.00;54676.59;5030103;28;20109;-79
2023/12/27 08:18:31;;;;;;;44.88;5.13;;;;;;;-144.73;100.00;54678.63;5010820;28;20038;-80
2023/12/27 08:21:04;;;;;;;36.33;4.20;;;;;;;-144.73;100.00;54678.63;5013017;28;20032;-79
2023/12/27 08:23:31;;;;;;;28.27;4.65;;;;;;;-144.73;100.00;54703.28;5006083;28;20025;-74
2023/12/27 08:25:57;;;;;;;32.08;4.18;;;;;;;-144.73;100.00;54654.00;5027481;28;20022;-74
2023/12/27 08:28:23;;;;;;;44.67;4.40;;;;;;;-144.73;100.00;54674.53;5029217;28;20061;-73
2023/12/27 08:30:49;;;;;;;26.55;3.40;;;;;;;-144.73;100.00;54703.28;5027016;28;20022;-73
2023/12/27 08:33:17;;;;;;;28.48;4.25;;;;;;;-144.73;100.00;54674.53;5025521;28;20553;-74
2023/12/27 08:35:43;;;;;;;28.58;4.75;;;;;;;-144.73;100.00;54725.84;5021230;28;20018;-74
2023/12/27 08:38:08;;;;;;;27.40;6.22;;;;;;;-144.73;100.00;54695.06;5012602;28;20140;-73
2023/12/27 08:40:34;;;;;;;30.55;4.47;;;;;;;-144.73;100.00;54699.16;5023677;28;20033;-74
2023/12/27 08:43:00;;;;;;;42.42;4.65;;;;;;;-144.73;100.00;54654.00;5017043;28;20041;-74
2023/12/27 08:45:26;;;;;;;30.33;5.05;;;;;;;-144.73;100.00;54703.28;5030859;28;20030;-73
2023/12/27 08:47:54;;;;;;;31.48;5.32;;;;;;;-144.73;100.00;54713.53;5013507;28;20125;-74
2023/12/27 08:50:19;;;;;;;39.25;5.57;;;;;;;-144.73;100.00;54649.91;5024845;28;20057;-74
2023/12/27 08:52:45;;;;;;;43.30;6.60;;;;;;;-144.73;100.00;54725.84;5035422;28;20068;-74
2023/12/27 08:55:10;;;;;;;25.73;5.40;;;;;;;-144.73;100.00;54670.44;5033340;28;20061;-74
2023/12/27 08:57:39;;;;;;;19.83;4.88;;;;;;;-144.73;100.00;54703.28;5025742;28;20041;-73
2023/12/27 09:00:10;;;;;;;33.33;5.65;;;;;;;-144.73;100.00;54674.53;5023522;28;20017;-74
2023/12/27 09:02:37;;;;;;;33.05;6.80;;;;;;;-144.73;100.00;54670.44;5025390;28;20464;-75
2023/12/27 09:05:07;;;;;;;30.25;5.70;;;;;;;-144.73;100.00;54707.38;5034127;28;20118;-75
2023/12/27 09:07:33;;;;;;;23.23;5.03;;;;;;;-144.73;100.00;54670.44;5023215;28;20054;-75
2023/12/27 09:09:58;;;;;;;23.45;4.57;;;;;;;-144.73;100.00;54699.16;5025491;28;20095;-74
2023/12/27 09:12:24;;;;;;;37.58;5.88;;;;;;;-144.73;100.00;54697.13;5027497;28;20045;-74
2023/12/27 09:14:49;;;;;;;33.72;5.40;;;;;;;-144.73;100.00;54690.97;5022986;28;20108;-74
2023/12/27 09:17:21;;;;;;;27.90;5.93;;;;;;;-144.73;100.00;54729.97;5031620;28;20042;-74
2023/12/27 09:19:46;;;;;;;35.40;6.88;;;;;;;-144.73;100.00;54678.63;5025913;28;20487;-75
2023/12/27 09:22:18;;;;;;;30.67;5.53;;;;;;;-144.73;100.00;54699.16;5017883;28;20048;-76
2023/12/27 09:24:43;;;;;;;27.00;6.15;;;;;;;-144.73;100.00;54717.66;5015149;28;20013;-74
2023/12/27 09:27:12;;;;;;;32.88;5.05;;;;;;;-144.73;100.00;54723.81;5039152;28;20044;-74
2023/12/27 09:29:37;;;;;;;44.40;5.18;;;;;;;-144.73;100.00;54711.47;5021080;28;20030;-73
2023/12/27 09:32:05;;;;;;;26.75;5.70;;;;;;;-144.73;100.00;54695.06;5012630;28;20044;-73
2023/12/27 09:34:30;;;;;;;26.88;5.07;;;;;;;-144.73;100.00;54674.53;5011150;28;20026;-73
2023/12/27 09:36:55;;;;;;;24.92;4.85;;;;;;;-144.73;100.00;54690.97;5011880;28;20048;-74
2023/12/27 09:39:21;;;;;;;35.28;5.15;;;;;;;-144.73;100.00;54658.13;5008484;28;20539;-74
2023/12/27 09:41:46;;;;;;;27.42;4.70;;;;;;;-144.73;100.00;54707.38;5009727;28;20040;-74
2023/12/27 09:44:12;;;;;;;30.45;4.55;;;;;;;-144.73;100.00;54695.06;5010990;28;20026;-73
2023/12/27 09:46:38;;;;;;;43.63;6.43;;;;;;;-144.73;100.00;54682.75;5009737;28;20037;-74
2023/12/27 09:49:05;;;;;;;26.90;5.18;;;;;;;-144.73;100.00;54719.69;5010553;28;20160;-74
2023/12/27 09:51:32;;;;;;;25.38;4.40;;;;;;;-144.73;100.00;54670.44;5013748;28;20040;-73
2023/12/27 09:54:04;;;;;;;36.22;5.65;;;;;;;-144.73;100.00;54703.28;5014330;28;20026;-73
2023/12/27 09:56:32;;;;;;;26.15;4.70;;;;;;;-144.73;100.00;54715.59;5037214;28;20094;-73
2023/12/27 09:59:05;;;;;;;31.55;5.22;;;;;;;-144.73;100.00;54727.91;5023642;28;20094;-73
2023/12/27 10:01:44;;;;;;;27.25;5.35;;;;;;;-144.73;100.00;54711.47;5024052;28;20041;-74
2023/12/27 10:04:30;;;;;;;30.02;5.22;;;;;;;-144.73;100.00;54674.53;5026646;28;20088;-73
2023/12/27 10:06:57;;;;;;;27.35;5.70;;;;;;;-144.73;100.00;54707.38;5013779;28;20046;-75
2023/12/27 10:09:23;;;;;;;35.08;5.32;;;;;;;-144.73;100.00;54703.28;5039742;28;20034;-74
2023/12/27 10:11:49;;;;;;;23.83;5.35;;;;;;;-144.73;100.00;54678.63;5025326;28;20053;-74
2023/12/27 10:14:16;;;;;;;38.20;5.82;;;;;;;-144.73;100.00;54699.16;5027723;28;20099;-74
2023/12/27 10:16:42;;;;;;;24.33;4.50;;;;;;;-144.73;100.00;54658.13;5036115;28;20116;-74
2023/12/27 10:19:10;;;;;;;26.50;5.30;;;;;;;-144.73;100.00;54727.91;5019011;28;20117;-72
2023/12/27 10:24:59;;;;;;;35.75;5.55;;;;;;;-144.73;100.00;54678.63;5028622;28;20036;-73
2023/12/27 10:27:28;;;;;;;33.30;5.13;;;;;;;-144.73;100.00;54693.00;5023344;28;20037;-74
2023/12/27 10:29:56;;;;;;;40.45;6.28;;;;;;;-144.73;100.00;54748.44;5020152;28;20025;-74
2023/12/27 10:32:21;;;;;;;27.05;5.20;;;;;;;-144.73;100.00;54711.47;5019175;28;20042;-74
2023/12/27 10:34:47;;;;;;;27.70;5.80;;;;;;;-144.73;100.00;54732.00;5020996;28;20040;-74
2023/12/27 10:37:13;;;;;;;19.17;4.55;;;;;;;-144.73;100.00;54670.44;5018205;28;20117;-74
2023/12/27 10:39:44;;;;;;;22.52;4.68;;;;;;;-144.73;100.00;54660.16;5019815;28;20021;-74
2023/12/27 10:42:16;;;;;;;28.42;5.30;;;;;;;-144.73;100.00;54686.84;5004466;28;20465;-74
2023/12/27 10:44:48;;;;;;;27.67;4.70;;;;;;;-144.73;100.00;54672.47;5009321;28;20017;-73
2023/12/27 10:47:17;;;;;;;28.42;5.35;;;;;;;-144.73;100.00;54674.53;5008986;28;20093;-74
2023/12/27 10:49:46;;;;;;;21.77;4.80;;;;;;;-144.73;100.00;54719.69;5003991;28;20475;-74
2023/12/27 10:52:12;;;;;;;22.90;4.50;;;;;;;-144.73;100.00;54695.06;5016296;28;20026;-74
2023/12/27 10:54:43;;;;;;;23.25;4.15;;;;;;;-144.73;100.00;54736.13;5021265;28;20071;-75
2023/12/27 10:57:15;;;;;;;29.08;5.10;;;;;;;-144.73;100.00;54740.22;5027081;28;20061;-74
2023/12/27 10:59:42;;;;;;;42.20;6.10;;;;;;;-144.73;100.00;54703.28;5023322;28;20013;-75
2023/12/27 11:02:09;;;;;;;30.30;5.10;;;;;;;-144.73;100.00;54674.53;5025037;28;20045;-74
2023/12/27 11:04:37;;;;;;;17.10;3.90;;;;;;;-144.73;100.00;54715.59;5039794;28;20021;-73
2023/12/27 11:07:03;;;;;;;21.38;5.03;;;;;;;-144.73;100.00;54701.22;5017102;28;20034;-73
2023/12/27 11:09:31;;;;;;;18.33;4.13;;;;;;;-144.73;100.00;54727.91;5022097;28;20107;-74
2023/12/27 11:12:01;;;;;;;43.22;4.90;;;;;;;-144.73;100.00;54711.47;5023769;28;20168;-74
2023/12/27 11:14:33;;;;;;;28.98;5.53;;;;;;;-144.73;100.00;54682.75;5033853;28;20033;-73